Portada
METAR-TAF:

METAR-TAF

Aeroports :

Schoolcraft County Airport

Manistique, Michigan, Estats Units d'Amèrica

latitud: 45-58-29N, longitud: 086-10-19W, altitud: 209 m

Observació

L'informe es va fer fa 22 minuts, a les 07:55 UTC
Vent 10 kt del Nord/Nord-Oest amb ràfegues de 17 kt
Temperatura 2°C
Humitat 100%
Pressió 1008 hPa
Visibilitat: 8.0 km
Cel cobert a una alçada de 900 ft
boirina

METAR: KISQ 300755Z AUTO 34010G17KT 5SM BR OVC009 02/02 A2978 RMK AO2 T00150015

Hora: 04:17 (08:17 UTC)


TAF: manca

Observacions i pronòstics meteorològics de més de 4000 aeroports (METAR i TAF).

Les estacions disponibles són els punts grocs i vermells al mapa.

Posi el ratolí al punt desitjat per veure el nom de l'estació.

Feu clic per veure les observacions i els pronòstics meteorològics.

Per canviar el mapa: feu clic els botons verds amb una creu de color negre per apropar; al botó verd amb un guió per allunyar la imatge; o en les fletxes verdes per a mapes adjacents.


METAR-TAF: